createdAt,value
2022-09-10T00:01:35.483Z,17.16
2022-09-10T00:04:12.570Z,17.20
2022-09-10T00:06:41.409Z,17.19
2022-09-10T00:09:10.628Z,17.22
2022-09-10T00:11:40.513Z,17.23
2022-09-10T00:14:14.644Z,17.21
2022-09-10T00:16:42.548Z,17.18
2022-09-10T00:19:09.869Z,17.13
2022-09-10T00:21:37.491Z,17.06
2022-09-10T00:24:05.640Z,17.01
2022-09-10T00:26:38.270Z,16.95
2022-09-10T00:29:09.651Z,16.89
2022-09-10T00:31:38.348Z,16.82
2022-09-10T00:34:06.809Z,16.75
2022-09-10T00:36:41.070Z,16.69
2022-09-10T00:39:13.965Z,16.64
2022-09-10T00:41:44.825Z,16.58
2022-09-10T00:44:41.458Z,16.53
2022-09-10T00:47:22.469Z,16.52
2022-09-10T00:50:19.739Z,16.50
2022-09-10T00:52:48.595Z,16.52
2022-09-10T00:55:17.554Z,16.52
2022-09-10T00:57:49.286Z,16.56
2022-09-10T01:00:19.833Z,16.60
2022-09-10T01:02:57.074Z,16.63
2022-09-10T01:05:30.080Z,16.66
2022-09-10T01:08:04.544Z,16.66
2022-09-10T01:10:41.180Z,16.64
2022-09-10T01:13:35.192Z,16.62
2022-09-10T01:16:24.565Z,16.61
2022-09-10T01:19:15.946Z,16.58
2022-09-10T01:22:11.549Z,16.55
2022-09-10T01:25:04.637Z,16.51
2022-09-10T01:27:43.339Z,16.47
2022-09-10T01:30:19.174Z,16.42
2022-09-10T01:33:03.677Z,16.39
2022-09-10T01:35:53.357Z,16.35
2022-09-10T01:38:27.937Z,16.33
2022-09-10T01:40:56.872Z,16.30
2022-09-10T01:43:26.787Z,16.27
2022-09-10T01:46:30.789Z,16.27
2022-09-10T01:49:28.033Z,16.25
2022-09-10T01:52:12.615Z,16.24
2022-09-10T01:54:48.203Z,16.27
2022-09-10T01:57:46.402Z,16.26
2022-09-10T02:00:17.934Z,16.26
2022-09-10T02:03:05.797Z,16.26
2022-09-10T02:05:36.980Z,16.27
2022-09-10T02:08:19.902Z,16.26
2022-09-10T02:11:03.466Z,16.25
2022-09-10T02:13:35.081Z,16.23
2022-09-10T02:16:30.844Z,16.23
2022-09-10T02:19:00.756Z,16.18
2022-09-10T02:21:28.885Z,16.13
2022-09-10T02:24:02.998Z,16.12
2022-09-10T02:26:30.938Z,16.10
2022-09-10T02:28:59.004Z,16.07
2022-09-10T02:31:27.750Z,16.03
2022-09-10T02:33:56.234Z,16.02
2022-09-10T02:36:25.612Z,16.03
2022-09-10T02:38:54.178Z,16.03
2022-09-10T02:41:23.979Z,16.04
2022-09-10T02:43:52.987Z,16.07
2022-09-10T02:46:21.622Z,16.10
2022-09-10T02:48:49.412Z,16.14
2022-09-10T02:51:17.009Z,16.20
2022-09-10T02:53:44.632Z,16.24
2022-09-10T02:56:14.767Z,16.28
2022-09-10T02:58:43.501Z,16.35
2022-09-10T03:01:16.179Z,16.39
2022-09-10T03:03:46.927Z,16.39
2022-09-10T03:06:14.606Z,16.42
2022-09-10T03:08:42.428Z,16.42
2022-09-10T03:11:11.899Z,16.41
2022-09-10T03:13:39.962Z,16.37
2022-09-10T03:16:08.941Z,16.33
2022-09-10T03:18:36.426Z,16.30
2022-09-10T03:21:20.524Z,16.29
2022-09-10T03:23:50.226Z,16.28
2022-09-10T03:26:24.529Z,16.25
2022-09-10T03:28:52.493Z,16.23
2022-09-10T03:31:21.212Z,16.23
2022-09-10T03:33:50.606Z,16.26
2022-09-10T03:36:20.475Z,16.29
2022-09-10T03:38:49.436Z,16.32
2022-09-10T03:41:17.030Z,16.38
2022-09-10T03:43:45.146Z,16.43
2022-09-10T03:46:13.163Z,16.49
2022-09-10T03:48:45.427Z,16.55
2022-09-10T03:51:15.580Z,16.57
2022-09-10T03:53:43.368Z,16.64
2022-09-10T03:56:11.521Z,16.68
2022-09-10T03:58:40.034Z,16.70
2022-09-10T04:01:08.985Z,16.69
2022-09-10T04:03:36.789Z,16.70
2022-09-10T04:06:04.396Z,16.68
2022-09-10T04:08:31.928Z,16.64
2022-09-10T04:11:03.713Z,16.62
2022-09-10T04:13:31.848Z,16.58
2022-09-10T04:16:00.551Z,16.53
2022-09-10T04:18:28.971Z,16.50
2022-09-10T04:20:57.615Z,16.47
2022-09-10T04:23:25.233Z,16.44
2022-09-10T04:25:53.223Z,16.40
2022-09-10T04:28:20.705Z,16.38
2022-09-10T04:30:50.788Z,16.37
2022-09-10T04:33:18.445Z,16.39
2022-09-10T04:35:46.155Z,16.40
2022-09-10T04:38:13.940Z,16.43
2022-09-10T04:40:44.013Z,16.48
2022-09-10T04:43:11.605Z,16.54
2022-09-10T04:45:41.088Z,16.59
2022-09-10T04:48:08.676Z,16.64
2022-09-10T04:50:59.313Z,16.68
2022-09-10T04:53:16.563Z,16.73
2022-09-10T04:55:46.908Z,16.76
2022-09-10T04:58:14.966Z,16.78
2022-09-10T05:00:44.699Z,16.82
2022-09-10T05:03:14.184Z,16.84
2022-09-10T05:05:43.248Z,16.86
2022-09-10T05:08:12.341Z,16.81
2022-09-10T05:10:41.503Z,16.78
2022-09-10T05:13:09.115Z,16.80
2022-09-10T05:15:37.780Z,16.82
2022-09-10T05:18:07.164Z,16.86
2022-09-10T05:20:36.816Z,16.87
2022-09-10T05:23:04.813Z,16.91
2022-09-10T05:25:33.996Z,16.98
2022-09-10T05:28:02.382Z,17.08
2022-09-10T05:30:31.734Z,17.17
2022-09-10T05:33:01.029Z,17.24
2022-09-10T05:35:30.100Z,17.33
2022-09-10T05:38:00.759Z,17.44
2022-09-10T05:40:29.466Z,17.53
2022-09-10T05:42:57.482Z,17.63
2022-09-10T05:45:25.235Z,17.73
2022-09-10T05:47:52.839Z,17.85
2022-09-10T05:50:22.060Z,17.91
2022-09-10T05:52:50.478Z,17.95
2022-09-10T05:55:18.517Z,17.97
2022-09-10T05:57:47.332Z,17.98
2022-09-10T06:00:16.778Z,17.98
2022-09-10T06:02:48.623Z,17.96
2022-09-10T06:05:20.608Z,17.99
2022-09-10T06:07:49.120Z,17.97
2022-09-10T06:10:17.460Z,17.97
2022-09-10T06:12:47.496Z,18.00
2022-09-10T06:15:16.004Z,18.06
2022-09-10T06:17:44.819Z,18.14
2022-09-10T06:20:15.124Z,18.22
2022-09-10T06:22:44.430Z,18.30
2022-09-10T06:25:13.011Z,18.41
2022-09-10T06:27:41.234Z,18.52
2022-09-10T06:30:09.507Z,18.62
2022-09-10T06:32:39.201Z,18.70
2022-09-10T06:35:09.269Z,18.75
2022-09-10T06:37:37.836Z,18.85
2022-09-10T06:40:08.232Z,18.95
2022-09-10T06:42:36.019Z,18.98
2022-09-10T06:45:06.354Z,19.03
2022-09-10T06:50:21.907Z,19.18
2022-09-10T06:52:51.078Z,19.27
2022-09-10T06:55:20.601Z,19.29
2022-09-10T06:57:48.149Z,19.28
2022-09-10T07:00:17.225Z,19.26
2022-09-10T07:02:47.369Z,19.25
2022-09-10T07:05:16.075Z,19.21
2022-09-10T07:07:43.966Z,19.16
2022-09-10T07:10:11.754Z,19.11
2022-09-10T07:12:39.298Z,19.05
2022-09-10T07:15:09.206Z,19.02
2022-09-10T07:17:37.254Z,19.03
2022-09-10T07:20:07.227Z,19.00
2022-09-10T07:22:39.388Z,19.05
2022-09-10T07:25:09.329Z,19.07
2022-09-10T07:27:55.574Z,19.06
2022-09-10T07:30:24.315Z,19.09
2022-09-10T07:32:52.652Z,19.12
2022-09-10T07:35:22.460Z,19.08
2022-09-10T07:37:50.825Z,19.04
2022-09-10T07:40:20.155Z,19.03
2022-09-10T07:42:47.822Z,19.01
2022-09-10T07:45:15.591Z,19.02
2022-09-10T07:47:45.433Z,19.06
2022-09-10T07:50:14.450Z,19.14
2022-09-10T07:52:42.357Z,19.23
2022-09-10T07:55:10.585Z,19.34
2022-09-10T07:57:40.130Z,19.43
2022-09-10T08:00:14.340Z,19.50
2022-09-10T08:02:46.711Z,19.55
2022-09-10T08:05:16.579Z,19.64
2022-09-10T08:07:45.079Z,19.73
2022-09-10T08:10:13.083Z,19.84
2022-09-10T08:12:41.838Z,19.93
2022-09-10T08:15:10.823Z,20.03
2022-09-10T08:17:39.585Z,20.16
2022-09-10T08:20:10.016Z,20.29
2022-09-10T08:22:39.094Z,20.42
2022-09-10T08:25:07.966Z,20.48
2022-09-10T08:27:36.643Z,20.52
2022-09-10T08:30:07.241Z,20.50
2022-09-10T08:32:35.512Z,20.45
2022-09-10T08:35:04.537Z,20.36
2022-09-10T08:37:33.262Z,20.29
2022-09-10T08:40:01.086Z,20.23
2022-09-10T08:42:40.974Z,20.23
2022-09-10T08:45:19.346Z,20.23
2022-09-10T08:48:05.360Z,20.21
2022-09-10T08:50:51.671Z,20.25
2022-09-10T08:53:28.954Z,20.31
2022-09-10T08:56:14.594Z,20.45
2022-09-10T08:59:16.605Z,20.56
2022-09-10T09:01:51.309Z,20.65
2022-09-10T09:04:38.903Z,20.74
2022-09-10T09:07:16.429Z,20.83
2022-09-10T09:09:52.991Z,20.92
2022-09-10T09:12:36.363Z,20.98
2022-09-10T09:15:28.738Z,21.07
2022-09-10T09:18:25.066Z,21.21
2022-09-10T09:21:03.707Z,21.30
2022-09-10T09:24:12.357Z,21.37
2022-09-10T09:26:37.677Z,21.42
2022-09-10T09:29:14.173Z,21.43
2022-09-10T09:31:46.976Z,21.51
2022-09-10T09:34:32.633Z,21.62
2022-09-10T09:37:04.624Z,21.86
2022-09-10T09:39:44.333Z,22.12
2022-09-10T09:42:41.074Z,22.37
2022-09-10T09:45:27.961Z,22.62
2022-09-10T09:47:55.745Z,22.88
2022-09-10T09:50:23.849Z,23.12
2022-09-10T09:52:56.123Z,23.31
2022-09-10T09:55:46.807Z,23.51
2022-09-10T09:58:28.264Z,23.70
2022-09-10T10:01:12.739Z,23.99
2022-09-10T10:04:00.994Z,24.23
2022-09-10T10:06:38.344Z,24.43
2022-09-10T10:09:31.240Z,24.58
2022-09-10T10:12:06.771Z,24.56
2022-09-10T10:14:42.658Z,24.48
2022-09-10T10:17:38.779Z,24.62
2022-09-10T10:20:16.388Z,24.73
2022-09-10T10:22:47.700Z,24.86
2022-09-10T10:25:41.395Z,24.98
2022-09-10T10:28:17.047Z,24.98
2022-09-10T10:30:51.788Z,25.03
2022-09-10T10:33:25.034Z,25.06
2022-09-10T10:36:07.275Z,24.99
2022-09-10T10:38:41.766Z,24.89
2022-09-10T10:41:32.858Z,24.87
2022-09-10T10:44:23.814Z,24.79
2022-09-10T10:47:02.509Z,24.62
2022-09-10T10:50:03.781Z,24.46
2022-09-10T10:53:16.678Z,24.36
2022-09-10T10:56:10.297Z,24.29
2022-09-10T10:59:00.910Z,24.28
2022-09-10T11:01:34.556Z,24.22
2022-09-10T11:04:39.211Z,24.19
2022-09-10T11:07:34.847Z,24.12
2022-09-10T11:10:20.115Z,24.10
2022-09-10T11:13:10.706Z,24.06
2022-09-10T11:16:05.011Z,23.99
2022-09-10T11:18:46.593Z,23.94
2022-09-10T11:21:31.870Z,24.04
2022-09-10T11:24:13.826Z,24.13
2022-09-10T11:26:56.904Z,24.19
2022-09-10T11:29:48.187Z,24.21
2022-09-10T11:32:34.204Z,24.19
2022-09-10T11:35:26.276Z,24.20
2022-09-10T11:38:25.907Z,24.29
2022-09-10T11:41:10.955Z,24.32
2022-09-10T11:43:52.609Z,24.35
2022-09-10T11:46:29.530Z,24.51
2022-09-10T11:49:17.997Z,24.74
2022-09-10T11:51:47.118Z,24.94
2022-09-10T11:54:18.892Z,25.02
2022-09-10T11:57:12.710Z,25.05
2022-09-10T12:00:11.317Z,25.02
2022-09-10T12:03:12.897Z,24.98
2022-09-10T12:06:01.407Z,25.05
2022-09-10T12:09:08.895Z,25.24
2022-09-10T12:12:06.197Z,25.41
2022-09-10T12:14:33.692Z,25.57
2022-09-10T12:17:28.032Z,25.73
2022-09-10T12:19:59.140Z,25.82
2022-09-10T12:22:39.766Z,25.96
2022-09-10T12:25:18.908Z,25.96
2022-09-10T12:27:53.427Z,25.51
2022-09-10T12:30:34.690Z,24.71
2022-09-10T12:33:17.994Z,24.12
2022-09-10T12:35:48.995Z,23.68
2022-09-10T12:38:54.491Z,23.32
2022-09-10T12:41:30.679Z,23.05
2022-09-10T12:44:00.847Z,22.58
2022-09-10T12:46:31.011Z,22.27
2022-09-10T12:49:11.514Z,22.05
2022-09-10T12:51:53.541Z,21.76
2022-09-10T12:54:52.058Z,21.46
2022-09-10T12:57:44.337Z,21.21
2022-09-10T13:00:21.954Z,20.97
2022-09-10T13:03:10.851Z,20.70
2022-09-10T13:05:50.766Z,20.55
2022-09-10T13:08:25.036Z,20.31
2022-09-10T13:11:02.673Z,20.18
2022-09-10T13:13:41.691Z,20.08
2022-09-10T13:16:20.128Z,19.99
2022-09-10T13:18:52.858Z,19.99
2022-09-10T13:21:28.070Z,19.97
2022-09-10T13:23:57.454Z,20.01
2022-09-10T13:26:37.279Z,20.07
2022-09-10T13:29:10.771Z,20.13
2022-09-10T13:31:43.476Z,20.21
2022-09-10T13:34:27.019Z,20.31
2022-09-10T13:37:40.142Z,20.36
2022-09-10T13:40:47.054Z,20.42
2022-09-10T13:43:57.563Z,20.40
2022-09-10T13:46:36.960Z,20.42
2022-09-10T13:49:21.359Z,20.41
2022-09-10T13:51:52.612Z,20.40
2022-09-10T13:54:42.946Z,20.36
2022-09-10T13:57:27.324Z,20.34
2022-09-10T14:00:03.500Z,20.28
2022-09-10T14:02:45.138Z,20.21
2022-09-10T14:05:26.127Z,20.18
2022-09-10T14:07:58.517Z,20.17
2022-09-10T14:10:26.049Z,20.17
2022-09-10T14:12:55.427Z,20.18
2022-09-10T14:15:28.731Z,20.19
2022-09-10T14:17:59.371Z,20.21
2022-09-10T14:20:31.211Z,20.17
2022-09-10T14:23:05.751Z,20.04
2022-09-10T14:25:40.291Z,19.98
2022-09-10T14:28:26.496Z,19.97
2022-09-10T14:31:23.877Z,19.85
2022-09-10T14:33:58.996Z,19.81
2022-09-10T14:36:33.241Z,19.84
2022-09-10T14:39:22.272Z,19.83
2022-09-10T14:41:54.647Z,19.74
2022-09-10T14:44:28.908Z,19.66
2022-09-10T14:47:00.794Z,19.56
2022-09-10T14:49:35.277Z,19.46
2022-09-10T14:52:03.636Z,19.32
2022-09-10T14:54:33.645Z,19.23
2022-09-10T14:57:04.768Z,19.14
2022-09-10T14:59:38.258Z,19.08
2022-09-10T15:02:22.928Z,19.04
2022-09-10T15:04:50.742Z,19.03
2022-09-10T15:07:18.617Z,19.07
2022-09-10T15:09:46.377Z,19.10
2022-09-10T15:12:28.784Z,19.14
2022-09-10T15:14:57.791Z,19.17
2022-09-10T15:17:26.399Z,19.17
2022-09-10T15:19:54.705Z,19.20
2022-09-10T15:22:26.192Z,19.33
2022-09-10T15:25:11.435Z,19.51
2022-09-10T15:27:25.099Z,19.65
2022-09-10T15:29:52.673Z,19.75
2022-09-10T15:32:20.167Z,19.86
2022-09-10T15:34:47.787Z,20.01
2022-09-10T15:37:15.163Z,20.16
2022-09-10T15:39:43.104Z,20.29
2022-09-10T15:42:11.124Z,20.43
2022-09-10T15:44:40.149Z,20.53
2022-09-10T15:47:07.902Z,20.53
2022-09-10T15:49:35.486Z,20.46
2022-09-10T15:52:03.440Z,20.42
2022-09-10T15:54:32.898Z,20.38
2022-09-10T15:57:00.762Z,20.34
2022-09-10T15:59:28.715Z,20.32
2022-09-10T16:01:56.523Z,20.24
2022-09-10T16:04:24.595Z,20.18
2022-09-10T16:06:52.165Z,20.10
2022-09-10T16:09:19.713Z,20.01
2022-09-10T16:11:47.740Z,19.93
2022-09-10T16:14:18.203Z,19.84
2022-09-10T16:16:45.862Z,19.73
2022-09-10T16:19:13.437Z,19.66
2022-09-10T16:21:41.096Z,19.57
2022-09-10T16:24:09.760Z,19.48
2022-09-10T16:26:40.375Z,19.43
2022-09-10T16:29:18.945Z,19.40
2022-09-10T16:31:47.721Z,19.35
2022-09-10T16:34:18.879Z,19.33
2022-09-10T16:36:50.914Z,19.31
2022-09-10T16:39:19.679Z,19.31
2022-09-10T16:41:50.439Z,19.34
2022-09-10T16:44:18.827Z,19.37
2022-09-10T16:46:47.078Z,19.39
2022-09-10T16:49:19.097Z,19.39
2022-09-10T16:51:51.179Z,19.38
2022-09-10T16:54:20.338Z,19.35
2022-09-10T16:56:48.626Z,19.30
2022-09-10T16:59:20.185Z,19.23
2022-09-10T17:01:49.640Z,19.16
2022-09-10T17:04:27.501Z,19.10
2022-09-10T17:06:51.822Z,19.05
2022-09-10T17:09:19.363Z,18.99
2022-09-10T17:11:47.196Z,18.91
2022-09-10T17:14:14.710Z,18.86
2022-09-10T17:16:43.040Z,18.85
2022-09-10T17:19:15.641Z,18.82
2022-09-10T17:21:48.564Z,18.82
2022-09-10T17:24:16.073Z,18.79
2022-09-10T17:26:43.816Z,18.76
2022-09-10T17:29:15.471Z,18.75
2022-09-10T17:31:46.143Z,18.73
2022-09-10T17:34:15.227Z,18.73
2022-09-10T17:36:46.467Z,18.74
2022-09-10T17:39:15.029Z,18.73
2022-09-10T17:41:43.564Z,18.70
2022-09-10T17:44:13.119Z,18.68
2022-09-10T17:46:42.142Z,18.64
2022-09-10T17:49:15.383Z,18.58
2022-09-10T17:51:43.314Z,18.53
2022-09-10T17:54:12.818Z,18.49
2022-09-10T17:56:41.286Z,18.45
2022-09-10T17:59:13.701Z,18.39
2022-09-10T18:01:42.621Z,18.32
2022-09-10T18:04:15.073Z,18.28
2022-09-10T18:06:43.852Z,18.22
2022-09-10T18:09:11.877Z,18.17
2022-09-10T18:11:41.006Z,18.12
2022-09-10T18:14:14.522Z,18.07
2022-09-10T18:16:42.061Z,18.02
2022-09-10T18:19:14.466Z,18.00
2022-09-10T18:21:44.593Z,17.98
2022-09-10T18:24:20.441Z,17.96
2022-09-10T18:26:51.393Z,17.98
2022-09-10T18:29:25.653Z,18.01
2022-09-10T18:31:56.789Z,18.05
2022-09-10T18:34:27.073Z,18.06
2022-09-10T18:36:58.958Z,18.06
2022-09-10T18:39:29.772Z,18.03
2022-09-10T18:41:59.247Z,17.97
2022-09-10T18:44:30.824Z,17.91
2022-09-10T18:46:58.288Z,17.89
2022-09-10T18:49:27.908Z,17.82
2022-09-10T18:51:56.854Z,17.77
2022-09-10T18:54:29.294Z,17.71
2022-09-10T18:56:57.634Z,17.64
2022-09-10T18:59:25.801Z,17.58
2022-09-10T19:01:55.324Z,17.52
2022-09-10T19:04:26.771Z,17.47
2022-09-10T19:06:56.162Z,17.42
2022-09-10T19:09:29.522Z,17.38
2022-09-10T19:11:59.864Z,17.37
2022-09-10T19:14:31.511Z,17.37
2022-09-10T19:17:01.721Z,17.40
2022-09-10T19:19:33.450Z,17.43
2022-09-10T19:22:06.345Z,17.46
2022-09-10T19:27:03.864Z,17.48
2022-09-10T19:29:31.504Z,17.47
2022-09-10T19:32:00.199Z,17.44
2022-09-10T19:34:27.521Z,17.42
2022-09-10T19:36:54.786Z,17.42
2022-09-10T19:39:22.096Z,17.42
2022-09-10T19:41:49.970Z,17.37
2022-09-10T19:44:17.844Z,17.31
2022-09-10T19:46:45.681Z,17.26
2022-09-10T19:49:13.518Z,17.22
2022-09-10T19:51:41.435Z,17.18
2022-09-10T19:54:09.620Z,17.16
2022-09-10T19:56:41.838Z,17.11
2022-09-10T19:59:10.394Z,17.04
2022-09-10T20:01:41.549Z,16.96
2022-09-10T20:04:12.143Z,16.91
2022-09-10T20:06:41.979Z,16.88
2022-09-10T20:09:10.303Z,16.88
2022-09-10T20:11:38.443Z,16.86
2022-09-10T20:14:13.196Z,16.86
2022-09-10T20:16:44.035Z,16.84
2022-09-10T20:19:16.594Z,16.86
2022-09-10T20:21:47.018Z,16.88
2022-09-10T20:24:15.768Z,16.89
2022-09-10T20:26:45.284Z,16.87
2022-09-10T20:29:18.867Z,16.87
2022-09-10T20:31:48.015Z,16.83
2022-09-10T20:34:21.356Z,16.80
2022-09-10T20:36:51.057Z,16.75
2022-09-10T20:39:24.550Z,16.73
2022-09-10T20:41:52.602Z,16.70
2022-09-10T20:44:20.590Z,16.64
2022-09-10T20:46:48.194Z,16.60
2022-09-10T20:49:16.633Z,16.57
2022-09-10T20:51:45.160Z,16.53
2022-09-10T20:54:16.515Z,16.41
2022-09-10T20:56:45.503Z,16.34
2022-09-10T20:59:17.401Z,16.27
2022-09-10T21:01:46.704Z,16.22
2022-09-10T21:04:14.859Z,16.18
2022-09-10T21:06:42.654Z,16.17
2022-09-10T21:09:11.331Z,16.17
2022-09-10T21:11:39.505Z,16.18
2022-09-10T21:14:08.313Z,16.19
2022-09-10T21:16:42.815Z,16.20
2022-09-10T21:19:14.161Z,16.23
2022-09-10T21:21:46.214Z,16.24
2022-09-10T21:24:17.615Z,16.26
2022-09-10T21:26:45.772Z,16.27
2022-09-10T21:29:17.042Z,16.27
2022-09-10T21:31:45.587Z,16.26
2022-09-10T21:34:14.294Z,16.23
2022-09-10T21:36:43.069Z,16.21
2022-09-10T21:39:16.921Z,16.19
2022-09-10T21:41:48.074Z,16.13
2022-09-10T21:44:21.494Z,16.06
2022-09-10T21:46:49.344Z,15.99
2022-09-10T21:49:18.426Z,15.95
2022-09-10T21:51:46.286Z,15.90
2022-09-10T21:54:20.133Z,15.87
2022-09-10T21:56:49.297Z,15.82
2022-09-10T21:59:17.862Z,15.78
2022-09-10T22:01:47.251Z,15.72
2022-09-10T22:04:21.487Z,15.68
2022-09-10T22:06:46.470Z,15.67
2022-09-10T22:09:15.814Z,15.66
2022-09-10T22:11:49.460Z,15.65
2022-09-10T22:14:22.708Z,15.67
2022-09-10T22:16:50.702Z,15.68
2022-09-10T22:19:25.353Z,15.66
2022-09-10T22:21:55.531Z,15.62
2022-09-10T22:24:23.644Z,15.63
2022-09-10T22:26:51.400Z,15.67
2022-09-10T22:29:20.011Z,15.71
2022-09-10T22:31:49.139Z,15.71
2022-09-10T22:34:17.951Z,15.71
2022-09-10T22:36:47.527Z,15.70
2022-09-10T22:39:21.431Z,15.70
2022-09-10T22:41:50.783Z,15.68
2022-09-10T22:44:19.459Z,15.68
2022-09-10T22:46:47.430Z,15.66
2022-09-10T22:49:16.259Z,15.63
2022-09-10T22:51:44.220Z,15.59
2022-09-10T22:54:11.866Z,15.57
2022-09-10T22:56:39.932Z,15.53
2022-09-10T22:59:11.595Z,15.52
2022-09-10T23:01:40.306Z,15.50
2022-09-10T23:04:08.911Z,15.50
2022-09-10T23:06:38.656Z,15.51
2022-09-10T23:09:14.055Z,15.53
2022-09-10T23:11:44.053Z,15.57
2022-09-10T23:14:16.124Z,15.58
2022-09-10T23:16:51.185Z,15.62
2022-09-10T23:19:23.247Z,15.70
2022-09-10T23:21:53.819Z,15.78
2022-09-10T23:24:25.815Z,15.87
2022-09-10T23:26:54.737Z,15.95
2022-09-10T23:29:23.630Z,16.01
2022-09-10T23:31:53.649Z,16.06
2022-09-10T23:34:22.606Z,16.10
2022-09-10T23:36:50.674Z,16.12
2022-09-10T23:39:21.386Z,16.11
2022-09-10T23:41:52.326Z,16.08
2022-09-10T23:44:20.420Z,16.08
2022-09-10T23:46:48.671Z,16.07
2022-09-10T23:49:16.686Z,16.05
2022-09-10T23:51:44.371Z,16.05
2022-09-10T23:54:12.518Z,16.03
2022-09-10T23:56:40.892Z,16.00
2022-09-10T23:59:08.667Z,15.99
